sensor_id;sensor_type;location;lat;lon;timestamp;temperature;humidity
56076;DHT22;41951;49.022;12.066;2023-03-21T00:01:15;8.30;99.90
56076;DHT22;41951;49.022;12.066;2023-03-21T00:03:40;8.30;99.90
56076;DHT22;41951;49.022;12.066;2023-03-21T00:06:12;8.30;99.90
56076;DHT22;41951;49.022;12.066;2023-03-21T00:08:38;8.30;99.90
56076;DHT22;41951;49.022;12.066;2023-03-21T00:11:05;8.40;99.90
56076;DHT22;41951;49.022;12.066;2023-03-21T00:13:32;8.40;99.90
56076;DHT22;41951;49.022;12.066;2023-03-21T00:16:12;8.30;99.90
56076;DHT22;41951;49.022;12.066;2023-03-21T00:18:44;8.30;99.90
56076;DHT22;41951;49.022;12.066;2023-03-21T00:21:13;8.30;99.90
56076;DHT22;41951;49.022;12.066;2023-03-21T00:23:42;8.30;99.90
56076;DHT22;41951;49.022;12.066;2023-03-21T00:26:08;8.30;99.90
56076;DHT22;41951;49.022;12.066;2023-03-21T00:28:36;8.30;99.90
56076;DHT22;41951;49.022;12.066;2023-03-21T00:31:02;8.30;99.90
56076;DHT22;41951;49.022;12.066;2023-03-21T00:33:27;8.30;99.90
56076;DHT22;41951;49.022;12.066;2023-03-21T00:35:55;8.30;99.90
56076;DHT22;41951;49.022;12.066;2023-03-21T00:38:22;8.30;99.90
56076;DHT22;41951;49.022;12.066;2023-03-21T00:40:48;8.30;99.90
56076;DHT22;41951;49.022;12.066;2023-03-21T00:43:14;8.30;99.90
56076;DHT22;41951;49.022;12.066;2023-03-21T00:45:42;8.30;99.90
56076;DHT22;41951;49.022;12.066;2023-03-21T00:48:08;8.30;99.90
56076;DHT22;41951;49.022;12.066;2023-03-21T00:50:35;8.40;99.90
56076;DHT22;41951;49.022;12.066;2023-03-21T00:53:00;8.30;99.90
56076;DHT22;41951;49.022;12.066;2023-03-21T00:55:26;8.30;99.90
56076;DHT22;41951;49.022;12.066;2023-03-21T00:57:51;8.30;99.90
56076;DHT22;41951;49.022;12.066;2023-03-21T01:00:18;8.30;99.90
56076;DHT22;41951;49.022;12.066;2023-03-21T01:02:44;8.30;99.90
56076;DHT22;41951;49.022;12.066;2023-03-21T01:05:27;8.30;99.90
56076;DHT22;41951;49.022;12.066;2023-03-21T01:08:14;8.30;99.90
56076;DHT22;41951;49.022;12.066;2023-03-21T01:10:44;8.30;99.90
56076;DHT22;41951;49.022;12.066;2023-03-21T01:13:11;8.30;99.90
56076;DHT22;41951;49.022;12.066;2023-03-21T01:15:43;8.20;99.90
56076;DHT22;41951;49.022;12.066;2023-03-21T01:18:08;8.20;99.90
56076;DHT22;41951;49.022;12.066;2023-03-21T01:20:34;8.20;99.90
56076;DHT22;41951;49.022;12.066;2023-03-21T01:23:03;8.20;99.90
56076;DHT22;41951;49.022;12.066;2023-03-21T01:25:28;8.20;99.90
56076;DHT22;41951;49.022;12.066;2023-03-21T01:27:54;8.20;99.90
56076;DHT22;41951;49.022;12.066;2023-03-21T01:30:23;8.30;99.90
56076;DHT22;41951;49.022;12.066;2023-03-21T01:32:51;8.30;99.90
56076;DHT22;41951;49.022;12.066;2023-03-21T01:35:17;8.30;99.90
56076;DHT22;41951;49.022;12.066;2023-03-21T01:37:45;8.30;99.90
56076;DHT22;41951;49.022;12.066;2023-03-21T01:40:23;8.30;99.90
56076;DHT22;41951;49.022;12.066;2023-03-21T01:42:50;8.30;99.90
56076;DHT22;41951;49.022;12.066;2023-03-21T01:48:19;8.20;99.90
56076;DHT22;41951;49.022;12.066;2023-03-21T01:50:46;8.20;99.90
56076;DHT22;41951;49.022;12.066;2023-03-21T01:53:12;8.20;99.90
56076;DHT22;41951;49.022;12.066;2023-03-21T01:55:40;8.10;99.90
56076;DHT22;41951;49.022;12.066;2023-03-21T01:58:07;8.10;99.90
56076;DHT22;41951;49.022;12.066;2023-03-21T02:00:33;8.00;99.90
56076;DHT22;41951;49.022;12.066;2023-03-21T02:03:03;8.10;99.90
56076;DHT22;41951;49.022;12.066;2023-03-21T02:05:37;8.10;99.90
56076;DHT22;41951;49.022;12.066;2023-03-21T02:08:04;8.10;99.90
56076;DHT22;41951;49.022;12.066;2023-03-21T02:10:31;8.10;99.90
56076;DHT22;41951;49.022;12.066;2023-03-21T02:13:00;8.20;99.90
56076;DHT22;41951;49.022;12.066;2023-03-21T02:15:37;8.20;99.90
56076;DHT22;41951;49.022;12.066;2023-03-21T02:21:00;8.20;99.90
56076;DHT22;41951;49.022;12.066;2023-03-21T02:40:05;8.20;99.90
56076;DHT22;41951;49.022;12.066;2023-03-21T02:45:19;8.20;99.90
56076;DHT22;41951;49.022;12.066;2023-03-21T02:47:51;8.20;99.90
56076;DHT22;41951;49.022;12.066;2023-03-21T02:50:22;8.20;99.90
56076;DHT22;41951;49.022;12.066;2023-03-21T02:52:49;8.10;99.90
56076;DHT22;41951;49.022;12.066;2023-03-21T02:55:27;8.10;99.90
56076;DHT22;41951;49.022;12.066;2023-03-21T02:57:55;8.10;99.90
56076;DHT22;41951;49.022;12.066;2023-03-21T03:00:24;8.10;99.90
56076;DHT22;41951;49.022;12.066;2023-03-21T03:02:50;8.10;99.90
56076;DHT22;41951;49.022;12.066;2023-03-21T03:05:21;8.10;99.90
56076;DHT22;41951;49.022;12.066;2023-03-21T03:14:18;8.20;99.90
56076;DHT22;41951;49.022;12.066;2023-03-21T03:17:19;8.20;99.90
56076;DHT22;41951;49.022;12.066;2023-03-21T03:23:15;8.10;99.90
56076;DHT22;41951;49.022;12.066;2023-03-21T03:25:48;8.00;99.90
56076;DHT22;41951;49.022;12.066;2023-03-21T03:28:19;8.00;99.90
56076;DHT22;41951;49.022;12.066;2023-03-21T03:30:46;8.10;99.90
56076;DHT22;41951;49.022;12.066;2023-03-21T03:33:15;8.10;99.90
56076;DHT22;41951;49.022;12.066;2023-03-21T03:35:43;8.20;99.90
56076;DHT22;41951;49.022;12.066;2023-03-21T03:38:11;8.20;99.90
56076;DHT22;41951;49.022;12.066;2023-03-21T03:40:39;8.20;99.90
56076;DHT22;41951;49.022;12.066;2023-03-21T03:43:22;8.20;99.90
56076;DHT22;41951;49.022;12.066;2023-03-21T03:45:58;8.20;99.90
56076;DHT22;41951;49.022;12.066;2023-03-21T03:48:34;8.20;99.90
56076;DHT22;41951;49.022;12.066;2023-03-21T03:51:26;8.10;99.90
56076;DHT22;41951;49.022;12.066;2023-03-21T03:54:03;8.20;99.90
56076;DHT22;41951;49.022;12.066;2023-03-21T03:56:31;8.10;99.90
56076;DHT22;41951;49.022;12.066;2023-03-21T03:58:57;8.00;99.90
56076;DHT22;41951;49.022;12.066;2023-03-21T04:01:22;8.00;99.90
56076;DHT22;41951;49.022;12.066;2023-03-21T04:03:48;8.10;99.90
56076;DHT22;41951;49.022;12.066;2023-03-21T04:06:15;8.10;99.90
56076;DHT22;41951;49.022;12.066;2023-03-21T04:08:41;8.10;99.90
56076;DHT22;41951;49.022;12.066;2023-03-21T04:11:06;8.10;99.90
56076;DHT22;41951;49.022;12.066;2023-03-21T04:13:32;8.10;99.90
56076;DHT22;41951;49.022;12.066;2023-03-21T04:15:58;8.10;99.90
56076;DHT22;41951;49.022;12.066;2023-03-21T04:18:24;8.00;99.90
56076;DHT22;41951;49.022;12.066;2023-03-21T04:20:50;7.90;99.90
56076;DHT22;41951;49.022;12.066;2023-03-21T04:23:17;7.80;99.90
56076;DHT22;41951;49.022;12.066;2023-03-21T04:25:43;7.80;99.90
56076;DHT22;41951;49.022;12.066;2023-03-21T04:28:10;7.80;99.90
56076;DHT22;41951;49.022;12.066;2023-03-21T04:30:35;7.90;99.90
56076;DHT22;41951;49.022;12.066;2023-03-21T04:33:01;7.90;99.90
56076;DHT22;41951;49.022;12.066;2023-03-21T04:35:27;7.90;99.90
56076;DHT22;41951;49.022;12.066;2023-03-21T04:37:53;7.90;99.90
56076;DHT22;41951;49.022;12.066;2023-03-21T04:40:19;7.90;99.90
56076;DHT22;41951;49.022;12.066;2023-03-21T04:42:46;8.00;99.90
56076;DHT22;41951;49.022;12.066;2023-03-21T04:45:13;7.90;99.90
56076;DHT22;41951;49.022;12.066;2023-03-21T04:47:39;7.90;99.90
56076;DHT22;41951;49.022;12.066;2023-03-21T04:50:06;7.90;99.90
56076;DHT22;41951;49.022;12.066;2023-03-21T04:52:32;8.00;99.90
56076;DHT22;41951;49.022;12.066;2023-03-21T04:54:57;8.00;99.90
56076;DHT22;41951;49.022;12.066;2023-03-21T04:57:23;8.00;99.90
56076;DHT22;41951;49.022;12.066;2023-03-21T04:59:48;8.00;99.90
56076;DHT22;41951;49.022;12.066;2023-03-21T05:02:14;8.00;99.90
56076;DHT22;41951;49.022;12.066;2023-03-21T05:04:40;8.00;99.90
56076;DHT22;41951;49.022;12.066;2023-03-21T05:07:06;8.00;99.90
56076;DHT22;41951;49.022;12.066;2023-03-21T05:09:31;8.00;99.90
56076;DHT22;41951;49.022;12.066;2023-03-21T05:11:57;8.00;99.90
56076;DHT22;41951;49.022;12.066;2023-03-21T05:14:24;8.00;99.90
56076;DHT22;41951;49.022;12.066;2023-03-21T05:16:50;8.00;99.90
56076;DHT22;41951;49.022;12.066;2023-03-21T05:19:23;8.00;99.90
56076;DHT22;41951;49.022;12.066;2023-03-21T05:21:49;8.00;99.90
56076;DHT22;41951;49.022;12.066;2023-03-21T05:24:17;8.10;99.90
56076;DHT22;41951;49.022;12.066;2023-03-21T05:26:44;8.10;99.90
56076;DHT22;41951;49.022;12.066;2023-03-21T05:29:15;8.00;99.90
56076;DHT22;41951;49.022;12.066;2023-03-21T05:31:42;8.00;99.90
56076;DHT22;41951;49.022;12.066;2023-03-21T05:34:07;8.00;99.90
56076;DHT22;41951;49.022;12.066;2023-03-21T05:36:33;8.00;99.90
56076;DHT22;41951;49.022;12.066;2023-03-21T05:39:01;8.00;99.90
56076;DHT22;41951;49.022;12.066;2023-03-21T05:43:57;8.00;99.90
56076;DHT22;41951;49.022;12.066;2023-03-21T05:46:23;8.00;99.90
56076;DHT22;41951;49.022;12.066;2023-03-21T05:48:48;8.00;99.90
56076;DHT22;41951;49.022;12.066;2023-03-21T05:51:14;7.60;99.90
56076;DHT22;41951;49.022;12.066;2023-03-21T05:53:39;8.00;99.90
56076;DHT22;41951;49.022;12.066;2023-03-21T05:56:06;8.00;99.90
56076;DHT22;41951;49.022;12.066;2023-03-21T05:58:31;8.00;99.90
56076;DHT22;41951;49.022;12.066;2023-03-21T06:00:57;8.10;99.90
56076;DHT22;41951;49.022;12.066;2023-03-21T06:03:23;8.10;99.90
56076;DHT22;41951;49.022;12.066;2023-03-21T06:05:48;8.20;99.90
56076;DHT22;41951;49.022;12.066;2023-03-21T06:08:14;8.10;99.90
56076;DHT22;41951;49.022;12.066;2023-03-21T06:10:39;8.20;99.90
56076;DHT22;41951;49.022;12.066;2023-03-21T06:13:05;8.20;99.90
56076;DHT22;41951;49.022;12.066;2023-03-21T06:15:31;8.20;99.90
56076;DHT22;41951;49.022;12.066;2023-03-21T06:17:56;8.20;99.90
56076;DHT22;41951;49.022;12.066;2023-03-21T06:20:22;8.20;99.90
56076;DHT22;41951;49.022;12.066;2023-03-21T06:22:47;8.20;99.90
56076;DHT22;41951;49.022;12.066;2023-03-21T06:25:13;8.20;99.90
56076;DHT22;41951;49.022;12.066;2023-03-21T06:27:39;8.20;99.90
56076;DHT22;41951;49.022;12.066;2023-03-21T06:30:05;8.20;99.90
56076;DHT22;41951;49.022;12.066;2023-03-21T06:32:31;8.20;99.90
56076;DHT22;41951;49.022;12.066;2023-03-21T06:34:57;8.20;99.90
56076;DHT22;41951;49.022;12.066;2023-03-21T06:37:22;8.20;99.90
56076;DHT22;41951;49.022;12.066;2023-03-21T06:39:48;8.30;99.90
56076;DHT22;41951;49.022;12.066;2023-03-21T06:42:14;8.30;99.90
56076;DHT22;41951;49.022;12.066;2023-03-21T06:44:40;8.40;99.90
56076;DHT22;41951;49.022;12.066;2023-03-21T06:47:06;8.40;99.90
56076;DHT22;41951;49.022;12.066;2023-03-21T06:49:31;8.40;99.90
56076;DHT22;41951;49.022;12.066;2023-03-21T06:51:57;8.40;99.90
56076;DHT22;41951;49.022;12.066;2023-03-21T06:54:22;8.50;99.90
56076;DHT22;41951;49.022;12.066;2023-03-21T06:56:48;8.60;99.90
56076;DHT22;41951;49.022;12.066;2023-03-21T06:59:14;8.70;99.90
56076;DHT22;41951;49.022;12.066;2023-03-21T07:01:40;8.70;99.90
56076;DHT22;41951;49.022;12.066;2023-03-21T07:04:07;8.80;99.90
56076;DHT22;41951;49.022;12.066;2023-03-21T07:06:33;8.90;99.90
56076;DHT22;41951;49.022;12.066;2023-03-21T07:08:59;8.90;99.90
56076;DHT22;41951;49.022;12.066;2023-03-21T07:11:25;9.00;99.90
56076;DHT22;41951;49.022;12.066;2023-03-21T07:13:51;9.00;99.90
56076;DHT22;41951;49.022;12.066;2023-03-21T07:16:17;9.10;99.90
56076;DHT22;41951;49.022;12.066;2023-03-21T07:18:43;9.20;99.90
56076;DHT22;41951;49.022;12.066;2023-03-21T07:21:09;9.20;99.90
56076;DHT22;41951;49.022;12.066;2023-03-21T07:23:36;9.10;99.90
56076;DHT22;41951;49.022;12.066;2023-03-21T07:26:03;9.20;99.90
56076;DHT22;41951;49.022;12.066;2023-03-21T07:28:28;9.20;99.90
56076;DHT22;41951;49.022;12.066;2023-03-21T07:30:57;9.40;99.90
56076;DHT22;41951;49.022;12.066;2023-03-21T07:33:24;9.50;99.90
56076;DHT22;41951;49.022;12.066;2023-03-21T07:35:50;9.50;99.90
56076;DHT22;41951;49.022;12.066;2023-03-21T07:38:16;9.50;99.90
56076;DHT22;41951;49.022;12.066;2023-03-21T07:40:43;9.60;99.90
56076;DHT22;41951;49.022;12.066;2023-03-21T07:43:09;9.60;99.90
56076;DHT22;41951;49.022;12.066;2023-03-21T07:45:34;9.60;99.90
56076;DHT22;41951;49.022;12.066;2023-03-21T07:48:00;9.70;99.90
56076;DHT22;41951;49.022;12.066;2023-03-21T07:50:26;9.80;99.90
56076;DHT22;41951;49.022;12.066;2023-03-21T07:52:52;9.80;99.90
56076;DHT22;41951;49.022;12.066;2023-03-21T07:55:18;9.90;99.90
56076;DHT22;41951;49.022;12.066;2023-03-21T07:57:44;9.80;99.90
56076;DHT22;41951;49.022;12.066;2023-03-21T08:00:10;9.90;99.90
56076;DHT22;41951;49.022;12.066;2023-03-21T08:02:37;10.10;99.90
56076;DHT22;41951;49.022;12.066;2023-03-21T08:05:02;10.20;99.90
56076;DHT22;41951;49.022;12.066;2023-03-21T08:07:28;10.40;99.90
56076;DHT22;41951;49.022;12.066;2023-03-21T08:09:55;10.50;99.90
56076;DHT22;41951;49.022;12.066;2023-03-21T08:12:20;10.60;99.90
56076;DHT22;41951;49.022;12.066;2023-03-21T08:14:46;10.80;99.90
56076;DHT22;41951;49.022;12.066;2023-03-21T08:17:11;10.80;99.90
56076;DHT22;41951;49.022;12.066;2023-03-21T08:19:37;11.00;99.90
56076;DHT22;41951;49.022;12.066;2023-03-21T08:22:03;11.10;99.90
56076;DHT22;41951;49.022;12.066;2023-03-21T08:24:31;11.10;99.90
56076;DHT22;41951;49.022;12.066;2023-03-21T08:26:59;11.20;99.90
56076;DHT22;41951;49.022;12.066;2023-03-21T08:29:25;11.30;99.90
56076;DHT22;41951;49.022;12.066;2023-03-21T08:31:51;11.40;99.90
56076;DHT22;41951;49.022;12.066;2023-03-21T08:34:17;11.40;99.90
56076;DHT22;41951;49.022;12.066;2023-03-21T08:36:43;11.40;99.90
56076;DHT22;41951;49.022;12.066;2023-03-21T08:39:09;11.30;99.90
56076;DHT22;41951;49.022;12.066;2023-03-21T08:41:36;11.30;99.90
56076;DHT22;41951;49.022;12.066;2023-03-21T08:44:04;11.40;99.90
56076;DHT22;41951;49.022;12.066;2023-03-21T08:46:30;11.50;99.90
56076;DHT22;41951;49.022;12.066;2023-03-21T08:48:56;11.60;99.90
56076;DHT22;41951;49.022;12.066;2023-03-21T08:51:21;11.70;99.90
56076;DHT22;41951;49.022;12.066;2023-03-21T08:53:47;11.70;99.90
56076;DHT22;41951;49.022;12.066;2023-03-21T08:56:16;11.80;99.90
56076;DHT22;41951;49.022;12.066;2023-03-21T08:58:42;11.90;99.90
56076;DHT22;41951;49.022;12.066;2023-03-21T09:01:07;12.00;99.90
56076;DHT22;41951;49.022;12.066;2023-03-21T09:03:36;12.00;99.90
56076;DHT22;41951;49.022;12.066;2023-03-21T09:06:03;12.10;99.90
56076;DHT22;41951;49.022;12.066;2023-03-21T09:08:29;12.10;99.90
56076;DHT22;41951;49.022;12.066;2023-03-21T09:10:55;12.30;99.90
56076;DHT22;41951;49.022;12.066;2023-03-21T09:13:21;12.10;99.90
56076;DHT22;41951;49.022;12.066;2023-03-21T09:15:47;12.20;99.90
56076;DHT22;41951;49.022;12.066;2023-03-21T09:18:13;12.30;99.90
56076;DHT22;41951;49.022;12.066;2023-03-21T09:20:46;12.20;99.90
56076;DHT22;41951;49.022;12.066;2023-03-21T09:23:13;12.30;99.90
56076;DHT22;41951;49.022;12.066;2023-03-21T09:25:40;12.30;99.90
56076;DHT22;41951;49.022;12.066;2023-03-21T09:28:06;12.40;99.90
56076;DHT22;41951;49.022;12.066;2023-03-21T09:30:34;12.30;99.90
56076;DHT22;41951;49.022;12.066;2023-03-21T09:33:02;12.20;99.90
56076;DHT22;41951;49.022;12.066;2023-03-21T09:35:30;12.40;99.90
56076;DHT22;41951;49.022;12.066;2023-03-21T09:37:56;12.50;99.90
56076;DHT22;41951;49.022;12.066;2023-03-21T09:46:12;12.70;99.90
56076;DHT22;41951;49.022;12.066;2023-03-21T09:51:23;13.00;99.90
56076;DHT22;41951;49.022;12.066;2023-03-21T09:53:52;13.00;99.90
56076;DHT22;41951;49.022;12.066;2023-03-21T09:56:20;13.10;99.90
56076;DHT22;41951;49.022;12.066;2023-03-21T09:58:49;13.10;99.90
56076;DHT22;41951;49.022;12.066;2023-03-21T10:01:26;13.10;99.90
56076;DHT22;41951;49.022;12.066;2023-03-21T10:04:00;13.10;99.90
56076;DHT22;41951;49.022;12.066;2023-03-21T10:06:28;13.10;99.90
56076;DHT22;41951;49.022;12.066;2023-03-21T10:09:24;13.10;99.90
56076;DHT22;41951;49.022;12.066;2023-03-21T10:14:27;13.20;99.90
56076;DHT22;41951;49.022;12.066;2023-03-21T10:17:03;13.20;99.90
56076;DHT22;41951;49.022;12.066;2023-03-21T10:19:31;13.20;99.90
56076;DHT22;41951;49.022;12.066;2023-03-21T10:21:57;13.30;99.90
56076;DHT22;41951;49.022;12.066;2023-03-21T10:24:25;13.30;99.90
56076;DHT22;41951;49.022;12.066;2023-03-21T10:26:52;13.30;99.90
56076;DHT22;41951;49.022;12.066;2023-03-21T10:29:22;13.20;99.90
56076;DHT22;41951;49.022;12.066;2023-03-21T10:31:49;13.20;99.90
56076;DHT22;41951;49.022;12.066;2023-03-21T10:34:30;13.40;99.90
56076;DHT22;41951;49.022;12.066;2023-03-21T10:36:58;14.10;99.90
56076;DHT22;41951;49.022;12.066;2023-03-21T10:39:36;13.70;99.90
56076;DHT22;41951;49.022;12.066;2023-03-21T10:42:02;13.60;99.90
56076;DHT22;41951;49.022;12.066;2023-03-21T10:44:34;13.70;99.90
56076;DHT22;41951;49.022;12.066;2023-03-21T10:47:06;13.70;99.90
56076;DHT22;41951;49.022;12.066;2023-03-21T10:49:32;13.60;99.90
56076;DHT22;41951;49.022;12.066;2023-03-21T10:52:01;13.70;99.90
56076;DHT22;41951;49.022;12.066;2023-03-21T10:54:30;13.70;99.90
56076;DHT22;41951;49.022;12.066;2023-03-21T10:57:19;13.70;99.90
56076;DHT22;41951;49.022;12.066;2023-03-21T10:59:48;13.80;99.90
56076;DHT22;41951;49.022;12.066;2023-03-21T11:02:25;13.70;99.90
56076;DHT22;41951;49.022;12.066;2023-03-21T11:04:53;13.80;99.90
56076;DHT22;41951;49.022;12.066;2023-03-21T11:07:20;13.70;99.90
56076;DHT22;41951;49.022;12.066;2023-03-21T11:09:56;13.70;99.90
56076;DHT22;41951;49.022;12.066;2023-03-21T11:12:33;13.70;99.90
56076;DHT22;41951;49.022;12.066;2023-03-21T11:15:30;13.80;99.90
56076;DHT22;41951;49.022;12.066;2023-03-21T11:18:11;13.80;99.90
56076;DHT22;41951;49.022;12.066;2023-03-21T11:20:43;13.90;99.90
56076;DHT22;41951;49.022;12.066;2023-03-21T11:23:12;13.90;99.90
56076;DHT22;41951;49.022;12.066;2023-03-21T11:25:40;14.00;99.90
56076;DHT22;41951;49.022;12.066;2023-03-21T11:28:21;13.90;99.90
56076;DHT22;41951;49.022;12.066;2023-03-21T11:30:57;14.00;99.90
56076;DHT22;41951;49.022;12.066;2023-03-21T11:33:46;14.00;99.90
56076;DHT22;41951;49.022;12.066;2023-03-21T11:38:42;14.10;99.90
56076;DHT22;41951;49.022;12.066;2023-03-21T11:41:08;14.20;99.90
56076;DHT22;41951;49.022;12.066;2023-03-21T11:43:51;14.40;99.90
56076;DHT22;41951;49.022;12.066;2023-03-21T11:46:22;14.60;99.90
56076;DHT22;41951;49.022;12.066;2023-03-21T11:48:48;14.60;99.90
56076;DHT22;41951;49.022;12.066;2023-03-21T11:54:20;14.70;99.90
56076;DHT22;41951;49.022;12.066;2023-03-21T11:56:50;14.80;99.90
56076;DHT22;41951;49.022;12.066;2023-03-21T12:04:58;15.00;99.90
56076;DHT22;41951;49.022;12.066;2023-03-21T12:12:58;15.50;99.90
56076;DHT22;41951;49.022;12.066;2023-03-21T12:20:53;15.90;99.90
56076;DHT22;41951;49.022;12.066;2023-03-21T12:23:59;16.10;99.90
56076;DHT22;41951;49.022;12.066;2023-03-21T12:26:28;16.10;99.90
56076;DHT22;41951;49.022;12.066;2023-03-21T12:32:04;16.20;99.90
56076;DHT22;41951;49.022;12.066;2023-03-21T12:40:26;16.70;99.90
56076;DHT22;41951;49.022;12.066;2023-03-21T12:45:45;16.80;98.30
56076;DHT22;41951;49.022;12.066;2023-03-21T12:50:53;17.00;97.10
56076;DHT22;41951;49.022;12.066;2023-03-21T12:56:20;17.30;97.80
56076;DHT22;41951;49.022;12.066;2023-03-21T12:58:57;17.40;96.60
56076;DHT22;41951;49.022;12.066;2023-03-21T13:01:25;17.40;96.00
56076;DHT22;41951;49.022;12.066;2023-03-21T13:06:59;17.30;96.50
56076;DHT22;41951;49.022;12.066;2023-03-21T13:09:37;17.30;96.30
56076;DHT22;41951;49.022;12.066;2023-03-21T13:12:36;17.40;95.90
56076;DHT22;41951;49.022;12.066;2023-03-21T13:15:44;17.70;96.50
56076;DHT22;41951;49.022;12.066;2023-03-21T13:18:32;17.80;94.60
56076;DHT22;41951;49.022;12.066;2023-03-21T13:21:11;17.80;95.50
56076;DHT22;41951;49.022;12.066;2023-03-21T13:23:38;17.90;94.60
56076;DHT22;41951;49.022;12.066;2023-03-21T13:26:09;17.80;94.70
56076;DHT22;41951;49.022;12.066;2023-03-21T13:28:38;17.60;94.70
56076;DHT22;41951;49.022;12.066;2023-03-21T13:31:20;17.60;94.70
56076;DHT22;41951;49.022;12.066;2023-03-21T13:33:49;17.60;94.70
56076;DHT22;41951;49.022;12.066;2023-03-21T13:36:21;17.70;94.70
56076;DHT22;41951;49.022;12.066;2023-03-21T13:38:53;18.20;94.60
56076;DHT22;41951;49.022;12.066;2023-03-21T13:41:31;18.10;93.40
56076;DHT22;41951;49.022;12.066;2023-03-21T13:48:58;17.80;93.30
56076;DHT22;41951;49.022;12.066;2023-03-21T13:59:16;18.20;93.20
56076;DHT22;41951;49.022;12.066;2023-03-21T14:04:25;18.40;91.90
56076;DHT22;41951;49.022;12.066;2023-03-21T14:07:01;18.20;91.70
56076;DHT22;41951;49.022;12.066;2023-03-21T14:09:46;18.50;91.80
56076;DHT22;41951;49.022;12.066;2023-03-21T14:12:16;18.40;91.80
56076;DHT22;41951;49.022;12.066;2023-03-21T14:14:46;18.90;91.90
56076;DHT22;41951;49.022;12.066;2023-03-21T14:17:24;19.10;91.30
56076;DHT22;41951;49.022;12.066;2023-03-21T14:19:58;19.30;91.40
56076;DHT22;41951;49.022;12.066;2023-03-21T14:22:25;19.10;90.30
56076;DHT22;41951;49.022;12.066;2023-03-21T14:24:57;19.10;90.90
56076;DHT22;41951;49.022;12.066;2023-03-21T14:27:26;19.20;90.70
56076;DHT22;41951;49.022;12.066;2023-03-21T14:29:52;19.50;90.60
56076;DHT22;41951;49.022;12.066;2023-03-21T14:32:22;19.30;90.20
56076;DHT22;41951;49.022;12.066;2023-03-21T14:34:49;19.20;89.40
56076;DHT22;41951;49.022;12.066;2023-03-21T14:37:26;19.30;89.70
56076;DHT22;41951;49.022;12.066;2023-03-21T14:40:00;19.50;88.70
56076;DHT22;41951;49.022;12.066;2023-03-21T14:42:26;19.70;88.50
56076;DHT22;41951;49.022;12.066;2023-03-21T14:44:52;20.20;87.40
56076;DHT22;41951;49.022;12.066;2023-03-21T14:47:25;20.50;86.20
56076;DHT22;41951;49.022;12.066;2023-03-21T14:49:52;21.10;84.50
56076;DHT22;41951;49.022;12.066;2023-03-21T14:52:30;20.80;83.50
56076;DHT22;41951;49.022;12.066;2023-03-21T14:54:57;20.40;82.80
56076;DHT22;41951;49.022;12.066;2023-03-21T14:57:29;20.10;83.50
56076;DHT22;41951;49.022;12.066;2023-03-21T15:00:01;19.50;84.00
56076;DHT22;41951;49.022;12.066;2023-03-21T15:02:37;19.70;84.40
56076;DHT22;41951;49.022;12.066;2023-03-21T15:05:30;19.20;84.60
56076;DHT22;41951;49.022;12.066;2023-03-21T15:07:59;19.00;86.00
56076;DHT22;41951;49.022;12.066;2023-03-21T15:10:27;18.80;86.10
56076;DHT22;41951;49.022;12.066;2023-03-21T15:12:59;18.50;86.70
56076;DHT22;41951;49.022;12.066;2023-03-21T15:15:26;18.20;87.50
56076;DHT22;41951;49.022;12.066;2023-03-21T15:17:55;18.00;88.30
56076;DHT22;41951;49.022;12.066;2023-03-21T15:20:25;17.70;89.10
56076;DHT22;41951;49.022;12.066;2023-03-21T15:22:58;17.50;90.00
56076;DHT22;41951;49.022;12.066;2023-03-21T15:25:27;17.20;90.60
56076;DHT22;41951;49.022;12.066;2023-03-21T15:27:54;17.00;90.80
56076;DHT22;41951;49.022;12.066;2023-03-21T15:32:46;17.00;91.30
56076;DHT22;41951;49.022;12.066;2023-03-21T15:35:20;16.90;91.40
56076;DHT22;41951;49.022;12.066;2023-03-21T15:37:57;16.80;91.70
56076;DHT22;41951;49.022;12.066;2023-03-21T15:40:30;16.70;92.20
56076;DHT22;41951;49.022;12.066;2023-03-21T15:43:06;16.60;92.10
56076;DHT22;41951;49.022;12.066;2023-03-21T15:45:46;16.50;92.60
56076;DHT22;41951;49.022;12.066;2023-03-21T15:48:13;16.30;92.80
56076;DHT22;41951;49.022;12.066;2023-03-21T15:50:45;16.20;93.20
56076;DHT22;41951;49.022;12.066;2023-03-21T15:53:15;16.10;93.30
56076;DHT22;41951;49.022;12.066;2023-03-21T15:55:48;16.00;93.80
56076;DHT22;41951;49.022;12.066;2023-03-21T15:58:19;15.90;93.80
56076;DHT22;41951;49.022;12.066;2023-03-21T16:00:57;15.90;94.00
56076;DHT22;41951;49.022;12.066;2023-03-21T16:03:28;15.80;94.40
56076;DHT22;41951;49.022;12.066;2023-03-21T16:11:27;15.70;95.00
56076;DHT22;41951;49.022;12.066;2023-03-21T16:13:54;15.60;95.30
56076;DHT22;41951;49.022;12.066;2023-03-21T16:16:22;15.50;95.50
56076;DHT22;41951;49.022;12.066;2023-03-21T16:18:49;15.50;95.80
56076;DHT22;41951;49.022;12.066;2023-03-21T16:21:17;15.40;96.10
56076;DHT22;41951;49.022;12.066;2023-03-21T16:23:44;15.30;96.30
56076;DHT22;41951;49.022;12.066;2023-03-21T16:26:15;15.30;96.50
56076;DHT22;41951;49.022;12.066;2023-03-21T16:28:42;15.30;97.00
56076;DHT22;41951;49.022;12.066;2023-03-21T16:31:21;15.20;97.20
56076;DHT22;41951;49.022;12.066;2023-03-21T16:33:47;15.10;97.70
56076;DHT22;41951;49.022;12.066;2023-03-21T16:36:15;15.10;97.70
56076;DHT22;41951;49.022;12.066;2023-03-21T16:38:46;15.10;98.00
56076;DHT22;41951;49.022;12.066;2023-03-21T16:41:12;15.00;98.30
56076;DHT22;41951;49.022;12.066;2023-03-21T16:43:38;15.00;98.60
56076;DHT22;41951;49.022;12.066;2023-03-21T16:46:18;14.90;98.80
56076;DHT22;41951;49.022;12.066;2023-03-21T16:48:46;14.80;99.70
56076;DHT22;41951;49.022;12.066;2023-03-21T16:51:15;14.80;99.60
56076;DHT22;41951;49.022;12.066;2023-03-21T16:53:41;14.80;99.70
56076;DHT22;41951;49.022;12.066;2023-03-21T16:56:16;14.80;99.90
56076;DHT22;41951;49.022;12.066;2023-03-21T16:58:42;14.70;99.90
56076;DHT22;41951;49.022;12.066;2023-03-21T17:01:15;14.70;99.90
56076;DHT22;41951;49.022;12.066;2023-03-21T17:03:44;14.60;99.90
56076;DHT22;41951;49.022;12.066;2023-03-21T17:06:18;14.60;99.90
56076;DHT22;41951;49.022;12.066;2023-03-21T17:08:44;14.60;99.90
56076;DHT22;41951;49.022;12.066;2023-03-21T17:11:12;14.50;99.90
56076;DHT22;41951;49.022;12.066;2023-03-21T17:13:37;14.50;99.90
56076;DHT22;41951;49.022;12.066;2023-03-21T17:16:06;14.50;99.90
56076;DHT22;41951;49.022;12.066;2023-03-21T17:18:32;14.40;99.90
56076;DHT22;41951;49.022;12.066;2023-03-21T17:20:57;14.40;99.90
56076;DHT22;41951;49.022;12.066;2023-03-21T17:23:23;14.40;99.90
56076;DHT22;41951;49.022;12.066;2023-03-21T17:25:49;14.30;99.90
56076;DHT22;41951;49.022;12.066;2023-03-21T17:28:14;14.20;99.90
56076;DHT22;41951;49.022;12.066;2023-03-21T17:30:40;14.20;99.90